createdAt,value
2019-02-21T00:00:52.399Z,13.73
2019-02-21T00:03:19.126Z,11.53
2019-02-21T00:05:45.886Z,13.07
2019-02-21T00:08:12.966Z,11.80
2019-02-21T00:10:40.086Z,13.10
2019-02-21T00:13:07.133Z,10.13
2019-02-21T00:15:33.995Z,13.30
2019-02-21T00:18:00.725Z,8.87
2019-02-21T00:20:27.771Z,10.57
2019-02-21T00:22:55.041Z,12.63
2019-02-21T00:25:29.038Z,13.77
2019-02-21T00:27:56.448Z,12.67
2019-02-21T00:30:34.598Z,11.17
2019-02-21T00:32:52.767Z,9.60
2019-02-21T00:35:19.491Z,9.67
2019-02-21T00:37:46.270Z,10.80
2019-02-21T00:40:13.000Z,9.47
2019-02-21T00:42:39.637Z,15.67
2019-02-21T00:45:06.504Z,15.00
2019-02-21T00:47:34.285Z,14.77
2019-02-21T00:50:00.921Z,13.50
2019-02-21T00:52:31.328Z,12.07
2019-02-21T00:54:57.589Z,13.90
2019-02-21T00:57:24.694Z,12.87
2019-02-21T00:59:52.301Z,16.17
2019-02-21T01:02:19.543Z,13.30
2019-02-21T01:04:46.607Z,12.17
2019-02-21T01:07:13.760Z,11.90
2019-02-21T01:09:53.751Z,13.63
2019-02-21T01:12:20.897Z,12.67
2019-02-21T01:14:47.977Z,15.20
2019-02-21T01:17:15.423Z,12.60
2019-02-21T01:19:43.036Z,15.77
2019-02-21T01:22:10.146Z,13.83
2019-02-21T01:24:37.730Z,13.30
2019-02-21T01:27:04.887Z,13.93
2019-02-21T01:29:32.389Z,11.83
2019-02-21T01:31:59.738Z,14.83
2019-02-21T01:34:26.907Z,13.13
2019-02-21T01:36:53.979Z,15.33
2019-02-21T01:39:21.553Z,12.57
2019-02-21T01:41:49.109Z,12.47
2019-02-21T01:44:16.200Z,14.13
2019-02-21T01:46:43.313Z,12.33
2019-02-21T01:49:10.555Z,17.53
2019-02-21T01:51:38.037Z,17.63
2019-02-21T01:54:05.160Z,13.37
2019-02-21T01:56:32.370Z,12.77
2019-02-21T01:58:59.831Z,17.03
2019-02-21T02:01:26.925Z,11.27
2019-02-21T02:03:54.070Z,15.63
2019-02-21T02:06:21.191Z,12.93
2019-02-21T02:08:48.308Z,13.60
2019-02-21T02:11:15.586Z,15.83
2019-02-21T02:13:42.679Z,15.60
2019-02-21T02:16:09.994Z,15.10
2019-02-21T02:18:37.508Z,14.70
2019-02-21T02:21:04.829Z,16.70
2019-02-21T02:23:32.356Z,19.50
2019-02-21T02:25:59.509Z,16.97
2019-02-21T02:28:26.611Z,18.20
2019-02-21T02:30:54.041Z,14.70
2019-02-21T02:33:21.199Z,13.53
2019-02-21T02:35:48.320Z,16.63
2019-02-21T02:38:15.435Z,16.13
2019-02-21T02:40:42.677Z,16.50
2019-02-21T02:43:09.822Z,16.13
2019-02-21T02:45:36.929Z,17.23
2019-02-21T02:48:04.043Z,15.43
2019-02-21T02:50:31.469Z,16.67
2019-02-21T02:52:59.414Z,18.90
2019-02-21T02:55:26.566Z,18.13
2019-02-21T02:57:53.634Z,19.10
2019-02-21T03:00:20.797Z,16.63
2019-02-21T03:02:47.940Z,17.80
2019-02-21T03:05:15.155Z,15.77
2019-02-21T03:07:42.269Z,21.23
2019-02-21T03:10:10.392Z,20.83
2019-02-21T03:12:49.657Z,19.10
2019-02-21T03:15:16.339Z,17.97
2019-02-21T03:17:43.267Z,22.90
2019-02-21T03:20:10.104Z,20.13
2019-02-21T03:22:36.909Z,16.77
2019-02-21T03:25:04.016Z,22.47
2019-02-21T03:27:30.863Z,18.03
2019-02-21T03:29:57.761Z,21.07
2019-02-21T03:32:24.502Z,19.87
2019-02-21T03:34:51.234Z,23.10
2019-02-21T03:37:18.065Z,23.53
2019-02-21T03:40:04.765Z,19.97
2019-02-21T03:42:31.998Z,22.87
2019-02-21T03:44:59.665Z,25.37
2019-02-21T03:47:27.195Z,22.90
2019-02-21T03:49:54.837Z,19.37
2019-02-21T03:52:21.935Z,23.27
2019-02-21T03:54:49.027Z,25.83
2019-02-21T03:57:16.203Z,26.90
2019-02-21T03:59:43.688Z,24.17
2019-02-21T04:02:10.982Z,27.27
2019-02-21T04:04:38.456Z,22.93
2019-02-21T04:07:05.544Z,24.93
2019-02-21T04:09:33.485Z,26.40
2019-02-21T04:12:01.037Z,25.47
2019-02-21T04:14:29.002Z,27.13
2019-02-21T04:19:48.604Z,25.53
2019-02-21T04:22:35.298Z,27.93
2019-02-21T04:25:02.069Z,26.70
2019-02-21T04:27:28.714Z,29.70
2019-02-21T04:29:55.453Z,31.07
2019-02-21T04:32:22.237Z,30.63
2019-02-21T04:34:49.244Z,31.90
2019-02-21T04:37:16.709Z,33.20
2019-02-21T04:39:43.695Z,32.33
2019-02-21T04:42:10.447Z,31.23
2019-02-21T04:44:37.111Z,31.80
2019-02-21T04:47:04.104Z,30.17
2019-02-21T04:49:30.975Z,32.40
2019-02-21T04:51:57.715Z,37.87
2019-02-21T04:54:24.718Z,33.50
2019-02-21T04:56:51.468Z,33.67
2019-02-21T04:59:18.317Z,31.53
2019-02-21T05:01:45.230Z,32.17
2019-02-21T05:04:11.991Z,36.50
2019-02-21T05:06:38.842Z,36.60
2019-02-21T05:09:07.523Z,33.70
2019-02-21T05:11:34.473Z,33.43
2019-02-21T05:14:01.437Z,36.07
2019-02-21T05:16:28.531Z,35.13
2019-02-21T05:18:55.265Z,34.17
2019-02-21T05:21:22.168Z,34.30
2019-02-21T05:23:49.320Z,36.93
2019-02-21T05:29:10.626Z,37.27
2019-02-21T05:34:37.310Z,33.77
2019-02-21T05:37:23.830Z,35.87
2019-02-21T05:40:10.543Z,38.40
2019-02-21T05:42:57.610Z,37.70
2019-02-21T05:45:32.085Z,37.37
2019-02-21T05:48:18.912Z,41.83
2019-02-21T05:51:05.690Z,43.77
2019-02-21T05:53:40.569Z,43.07
2019-02-21T05:56:27.004Z,44.53
2019-02-21T05:59:13.589Z,41.60
2019-02-21T06:01:59.997Z,41.00
2019-02-21T06:04:35.509Z,38.57
2019-02-21T06:07:41.501Z,42.67
2019-02-21T06:10:27.825Z,38.57
2019-02-21T06:13:14.723Z,38.60
2019-02-21T06:16:01.435Z,36.60
2019-02-21T06:18:48.119Z,39.67
2019-02-21T06:21:34.472Z,40.73
2019-02-21T06:24:29.345Z,43.53
2019-02-21T06:27:01.153Z,37.37
2019-02-21T06:29:47.466Z,38.00
2019-02-21T06:32:14.739Z,36.80
2019-02-21T06:34:43.134Z,38.27
2019-02-21T06:37:12.588Z,38.00
2019-02-21T06:39:38.796Z,39.20
2019-02-21T06:42:05.768Z,38.87
2019-02-21T06:44:32.635Z,40.33
2019-02-21T06:46:59.272Z,37.73
2019-02-21T06:49:32.440Z,39.17
2019-02-21T06:51:55.169Z,39.00
2019-02-21T06:54:22.551Z,39.90
2019-02-21T06:56:50.806Z,40.83
2019-02-21T06:59:17.698Z,38.03
2019-02-21T07:01:44.639Z,36.17
2019-02-21T07:04:11.371Z,34.37
2019-02-21T07:06:39.229Z,37.10
2019-02-21T07:09:06.858Z,38.37
2019-02-21T07:11:33.751Z,37.80
2019-02-21T07:14:01.035Z,38.40
2019-02-21T07:16:28.588Z,36.23
2019-02-21T07:18:55.407Z,37.50
2019-02-21T07:21:22.094Z,31.93
2019-02-21T07:23:49.101Z,38.03
2019-02-21T07:26:17.954Z,36.83
2019-02-21T07:28:44.889Z,41.03
2019-02-21T07:31:11.695Z,39.80
2019-02-21T07:33:38.580Z,35.53
2019-02-21T07:36:05.770Z,34.67
2019-02-21T07:38:32.756Z,33.90
2019-02-21T07:40:59.591Z,38.10
2019-02-21T07:43:26.508Z,32.27
2019-02-21T07:45:53.317Z,37.03
2019-02-21T07:48:20.473Z,35.90
2019-02-21T07:50:47.429Z,34.40
2019-02-21T07:53:14.078Z,34.27
2019-02-21T07:55:40.810Z,35.17
2019-02-21T07:58:07.669Z,38.00
2019-02-21T08:00:34.708Z,32.07
2019-02-21T08:03:02.129Z,35.00
2019-02-21T08:05:28.939Z,34.47
2019-02-21T08:07:56.051Z,34.90
2019-02-21T08:10:42.503Z,33.73
2019-02-21T08:13:09.591Z,38.00
2019-02-21T08:15:36.586Z,35.33
2019-02-21T08:18:03.499Z,36.53
2019-02-21T08:20:35.572Z,34.63
2019-02-21T08:23:02.845Z,40.83
2019-02-21T08:25:29.540Z,38.43
2019-02-21T08:27:56.661Z,41.47
2019-02-21T08:30:23.291Z,35.13
2019-02-21T08:32:59.473Z,39.97
2019-02-21T08:35:26.960Z,40.13
2019-02-21T08:37:53.726Z,40.60
2019-02-21T08:40:20.983Z,43.93
2019-02-21T08:42:48.041Z,38.60
2019-02-21T08:45:17.703Z,43.17
2019-02-21T08:47:44.053Z,38.90
2019-02-21T08:50:11.070Z,37.17
2019-02-21T08:52:46.679Z,38.93
2019-02-21T08:55:26.723Z,43.50
2019-02-21T08:57:54.162Z,41.77
2019-02-21T09:00:21.636Z,41.60
2019-02-21T09:02:49.199Z,41.30
2019-02-21T09:05:57.464Z,41.67
2019-02-21T09:08:33.089Z,39.80
2019-02-21T09:10:53.347Z,40.80
2019-02-21T09:13:20.457Z,42.50
2019-02-21T09:15:47.564Z,40.27
2019-02-21T09:18:14.825Z,41.30
2019-02-21T09:20:54.862Z,38.20
2019-02-21T09:23:21.602Z,37.23
2019-02-21T09:25:49.638Z,39.93
2019-02-21T09:28:17.326Z,41.70
2019-02-21T09:30:44.509Z,39.07
2019-02-21T09:33:33.854Z,38.60
2019-02-21T09:36:01.116Z,38.17
2019-02-21T09:38:28.786Z,37.20
2019-02-21T09:40:56.628Z,38.73
2019-02-21T09:43:24.031Z,39.13
2019-02-21T09:45:51.081Z,39.63
2019-02-21T09:48:18.425Z,37.33
2019-02-21T09:50:45.722Z,39.10
2019-02-21T09:53:13.136Z,38.57
2019-02-21T09:55:40.303Z,37.10
2019-02-21T09:58:07.426Z,40.57
2019-02-21T10:00:35.989Z,38.50
2019-02-21T10:03:03.650Z,37.17
2019-02-21T10:05:30.752Z,37.97
2019-02-21T10:07:57.781Z,39.80
2019-02-21T10:10:24.913Z,38.23
2019-02-21T10:12:51.763Z,34.50
2019-02-21T10:15:18.961Z,36.70
2019-02-21T10:17:46.445Z,32.43
2019-02-21T10:20:32.786Z,34.80
2019-02-21T10:22:59.604Z,31.90
2019-02-21T10:25:26.796Z,31.60
2019-02-21T10:27:54.483Z,31.30
2019-02-21T10:30:21.515Z,30.73
2019-02-21T10:32:48.622Z,34.77
2019-02-21T10:35:15.487Z,28.57
2019-02-21T10:37:42.655Z,30.40
2019-02-21T10:40:10.094Z,31.00
2019-02-21T10:42:36.864Z,28.90
2019-02-21T10:45:05.307Z,28.53
2019-02-21T10:47:32.462Z,28.53
2019-02-21T10:49:59.713Z,29.83
2019-02-21T10:52:26.383Z,29.90
2019-02-21T10:54:53.109Z,29.43
2019-02-21T10:57:19.848Z,27.03
2019-02-21T10:59:47.167Z,26.73
2019-02-21T11:02:15.338Z,29.33
2019-02-21T11:04:42.382Z,25.47
2019-02-21T11:07:10.023Z,24.47
2019-02-21T11:09:37.162Z,23.33
2019-02-21T11:12:03.984Z,23.37
2019-02-21T11:14:31.363Z,25.03
2019-02-21T11:16:58.203Z,24.47
2019-02-21T11:19:25.079Z,25.07
2019-02-21T11:21:51.765Z,21.63
2019-02-21T11:24:18.633Z,20.17
2019-02-21T11:26:45.645Z,20.07
2019-02-21T11:29:32.038Z,18.27
2019-02-21T11:31:58.771Z,18.73
2019-02-21T11:34:25.393Z,18.57
2019-02-21T11:36:52.709Z,19.00
2019-02-21T11:39:19.710Z,19.00
2019-02-21T11:41:46.439Z,16.23
2019-02-21T11:44:13.129Z,19.77
2019-02-21T11:46:39.983Z,21.83
2019-02-21T11:49:07.177Z,21.47
2019-02-21T11:51:34.061Z,18.37
2019-02-21T11:54:01.426Z,16.77
2019-02-21T11:56:28.156Z,17.87
2019-02-21T11:58:55.299Z,18.00
2019-02-21T12:01:22.123Z,18.77
2019-02-21T12:03:49.233Z,16.13
2019-02-21T12:06:16.392Z,19.67
2019-02-21T12:08:43.290Z,16.67
2019-02-21T12:11:10.313Z,18.00
2019-02-21T12:13:37.106Z,18.37
2019-02-21T12:16:23.669Z,16.23
2019-02-21T12:18:51.316Z,17.00
2019-02-21T12:21:18.387Z,14.00
2019-02-21T12:23:45.152Z,15.40
2019-02-21T12:26:24.779Z,14.97
2019-02-21T12:28:51.537Z,13.70
2019-02-21T12:31:18.168Z,16.13
2019-02-21T12:33:45.032Z,12.03
2019-02-21T12:36:11.873Z,14.97
2019-02-21T12:38:39.389Z,12.53
2019-02-21T12:41:06.454Z,10.83
2019-02-21T12:43:33.192Z,16.73
2019-02-21T12:46:00.299Z,15.03
2019-02-21T12:48:27.514Z,17.03
2019-02-21T12:50:54.273Z,14.17
2019-02-21T12:53:20.989Z,14.07
2019-02-21T12:55:47.739Z,15.00
2019-02-21T12:58:14.500Z,13.20
2019-02-21T13:00:41.683Z,15.07
2019-02-21T13:03:08.476Z,17.40
2019-02-21T13:05:41.034Z,16.60
2019-02-21T13:08:03.961Z,13.07
2019-02-21T13:10:30.820Z,17.33
2019-02-21T13:12:57.469Z,14.63
2019-02-21T13:15:44.175Z,12.97
2019-02-21T13:18:15.930Z,15.70
2019-02-21T13:20:39.747Z,15.60
2019-02-21T13:23:06.534Z,16.37
2019-02-21T13:25:33.177Z,15.50
2019-02-21T13:28:12.981Z,13.07
2019-02-21T13:30:40.471Z,18.27
2019-02-21T13:33:08.111Z,16.57
2019-02-21T13:35:35.257Z,14.80
2019-02-21T13:38:02.742Z,15.77
2019-02-21T13:40:29.837Z,15.20
2019-02-21T13:42:56.998Z,18.20
2019-02-21T13:45:24.080Z,14.90
2019-02-21T13:47:51.518Z,13.23
2019-02-21T13:50:19.129Z,12.23
2019-02-21T13:52:46.175Z,13.30
2019-02-21T13:55:13.712Z,15.67
2019-02-21T13:57:40.831Z,15.60
2019-02-21T14:00:28.960Z,14.30
2019-02-21T14:02:55.753Z,18.90
2019-02-21T14:05:22.383Z,14.10
2019-02-21T14:07:49.019Z,12.27
2019-02-21T14:10:15.803Z,15.10
2019-02-21T14:12:42.677Z,12.53
2019-02-21T14:15:28.973Z,12.27
2019-02-21T14:17:56.028Z,12.20
2019-02-21T14:20:23.069Z,13.37
2019-02-21T14:22:49.995Z,13.03
2019-02-21T14:25:16.856Z,15.07
2019-02-21T14:27:43.574Z,14.90
2019-02-21T14:30:12.664Z,16.47
2019-02-21T14:32:39.398Z,14.07
2019-02-21T14:35:07.639Z,14.87
2019-02-21T14:37:34.419Z,13.30
2019-02-21T14:40:01.329Z,13.37
2019-02-21T14:42:28.054Z,18.00
2019-02-21T14:44:54.828Z,13.47
2019-02-21T14:47:21.951Z,11.77
2019-02-21T14:49:48.600Z,12.83
2019-02-21T14:52:15.392Z,14.80
2019-02-21T14:54:42.226Z,12.47
2019-02-21T14:57:08.863Z,11.93
2019-02-21T14:59:36.026Z,11.90
2019-02-21T15:02:05.993Z,14.60
2019-02-21T15:04:31.664Z,14.43
2019-02-21T15:06:58.751Z,13.43
2019-02-21T15:09:25.642Z,15.90
2019-02-21T15:11:52.504Z,13.27
2019-02-21T15:14:19.367Z,13.67
2019-02-21T15:16:46.021Z,13.90
2019-02-21T15:19:12.927Z,13.47
2019-02-21T15:21:39.670Z,15.33
2019-02-21T15:24:06.960Z,16.60
2019-02-21T15:26:33.967Z,13.80
2019-02-21T15:29:00.952Z,15.13
2019-02-21T15:31:27.736Z,13.50
2019-02-21T15:33:54.559Z,13.50
2019-02-21T15:36:21.688Z,13.97
2019-02-21T15:38:48.428Z,15.63
2019-02-21T15:44:24.063Z,17.10
2019-02-21T15:47:11.416Z,14.03
2019-02-21T15:49:39.034Z,15.93
2019-02-21T15:52:09.448Z,15.73
2019-02-21T15:54:36.683Z,14.93
2019-02-21T15:57:03.874Z,16.93
2019-02-21T15:59:31.142Z,14.10
2019-02-21T16:01:58.535Z,18.43
2019-02-21T16:04:26.051Z,14.70
2019-02-21T16:06:53.672Z,15.70
2019-02-21T16:09:20.929Z,15.93
2019-02-21T16:11:48.060Z,14.67
2019-02-21T16:14:15.275Z,15.37
2019-02-21T16:16:42.544Z,15.20
2019-02-21T16:19:10.092Z,20.13
2019-02-21T16:21:37.179Z,16.37
2019-02-21T16:24:04.426Z,18.97
2019-02-21T16:26:31.555Z,19.43
2019-02-21T16:28:58.936Z,19.63
2019-02-21T16:31:26.120Z,16.97
2019-02-21T16:33:53.701Z,21.77
2019-02-21T16:36:20.786Z,21.27
2019-02-21T16:38:48.021Z,18.07
2019-02-21T16:41:15.899Z,20.43
2019-02-21T16:43:43.026Z,19.73
2019-02-21T16:46:10.998Z,23.67
2019-02-21T16:48:38.443Z,17.60
2019-02-21T16:51:06.253Z,19.40
2019-02-21T16:53:33.486Z,19.00
2019-02-21T16:56:00.558Z,20.47
2019-02-21T16:58:27.962Z,18.27
2019-02-21T17:00:56.889Z,19.00
2019-02-21T17:03:23.631Z,19.90
2019-02-21T17:05:50.525Z,18.23
2019-02-21T17:08:17.270Z,18.77
2019-02-21T17:10:44.189Z,20.40
2019-02-21T17:13:11.416Z,20.87
2019-02-21T17:15:38.304Z,22.27
2019-02-21T17:18:05.129Z,20.37
2019-02-21T17:20:51.990Z,21.33
2019-02-21T17:23:38.653Z,18.63
2019-02-21T17:26:24.985Z,19.53
2019-02-21T17:28:51.751Z,19.27
2019-02-21T17:31:18.786Z,25.10
2019-02-21T17:33:45.821Z,20.07
2019-02-21T17:36:12.629Z,19.33
2019-02-21T17:38:39.533Z,20.77
2019-02-21T17:41:06.615Z,20.03
2019-02-21T17:43:33.419Z,17.73
2019-02-21T17:46:00.465Z,20.30
2019-02-21T17:48:27.431Z,20.97
2019-02-21T17:50:54.147Z,20.40
2019-02-21T17:53:20.865Z,21.97
2019-02-21T17:55:47.706Z,23.40
2019-02-21T17:58:17.103Z,19.93
2019-02-21T18:00:43.079Z,20.43
2019-02-21T18:03:10.013Z,21.10
2019-02-21T18:05:36.884Z,19.70
2019-02-21T18:08:03.724Z,20.70
2019-02-21T18:10:30.566Z,21.00
2019-02-21T18:12:57.210Z,21.53
2019-02-21T18:15:24.246Z,23.37
2019-02-21T18:17:51.138Z,24.67
2019-02-21T18:20:17.977Z,25.77
2019-02-21T18:22:44.985Z,24.73
2019-02-21T18:25:15.877Z,24.00
2019-02-21T18:27:42.705Z,27.70
2019-02-21T18:30:29.316Z,30.77
2019-02-21T18:32:56.371Z,29.00
2019-02-21T18:35:23.114Z,34.00
2019-02-21T18:38:02.677Z,36.70
2019-02-21T18:40:29.415Z,41.20
2019-02-21T18:42:56.134Z,40.33
2019-02-21T18:45:43.428Z,44.53
2019-02-21T18:48:10.925Z,47.13
2019-02-21T18:50:38.707Z,45.47
2019-02-21T18:53:07.222Z,50.87
2019-02-21T18:55:34.625Z,50.17
2019-02-21T18:58:01.365Z,53.20
2019-02-21T19:00:30.036Z,52.57
2019-02-21T19:02:57.051Z,56.10
2019-02-21T19:05:34.973Z,53.50
2019-02-21T19:08:00.832Z,62.40
2019-02-21T19:10:21.485Z,59.30
2019-02-21T19:12:48.645Z,56.80
2019-02-21T19:15:56.565Z,62.20
2019-02-21T19:18:24.319Z,64.93
2019-02-21T19:20:51.948Z,63.90
2019-02-21T19:23:18.938Z,63.53
2019-02-21T19:25:45.808Z,70.40
2019-02-21T19:28:13.037Z,72.00
2019-02-21T19:30:43.788Z,69.57
2019-02-21T19:33:10.812Z,71.33
2019-02-21T19:35:38.034Z,69.90
2019-02-21T19:38:10.616Z,68.37
2019-02-21T19:40:33.606Z,70.53
2019-02-21T19:43:00.238Z,67.60
2019-02-21T19:45:26.985Z,66.67
2019-02-21T19:47:53.619Z,65.03
2019-02-21T19:50:40.445Z,66.67
2019-02-21T19:53:07.176Z,69.97
2019-02-21T19:55:34.284Z,69.33
2019-02-21T19:58:01.433Z,70.43
2019-02-21T20:03:18.109Z,76.43
2019-02-21T20:05:45.828Z,77.40
2019-02-21T20:08:20.958Z,75.43
2019-02-21T20:10:42.005Z,80.03
2019-02-21T20:15:57.967Z,80.63
2019-02-21T20:18:24.797Z,88.37
2019-02-21T20:20:52.071Z,86.73
2019-02-21T20:23:19.308Z,88.83
2019-02-21T20:25:46.436Z,86.50
2019-02-21T20:28:13.773Z,84.53
2019-02-21T20:30:40.758Z,86.87
2019-02-21T20:33:07.599Z,89.93
2019-02-21T20:35:34.504Z,86.10
2019-02-21T20:38:02.202Z,93.33
2019-02-21T20:40:29.450Z,88.40
2019-02-21T20:42:56.146Z,89.87
2019-02-21T20:45:24.834Z,89.57
2019-02-21T20:47:52.195Z,86.83
2019-02-21T20:50:19.292Z,91.97
2019-02-21T20:52:46.911Z,91.90
2019-02-21T20:55:43.439Z,98.03
2019-02-21T20:58:04.145Z,87.20
2019-02-21T21:00:50.678Z,97.13
2019-02-21T21:03:17.838Z,90.83
2019-02-21T21:05:45.075Z,92.43
2019-02-21T21:08:11.762Z,93.13
2019-02-21T21:10:38.607Z,98.13
2019-02-21T21:13:05.344Z,92.40
2019-02-21T21:15:32.356Z,88.37
2019-02-21T21:17:59.090Z,90.20
2019-02-21T21:20:26.207Z,88.43
2019-02-21T21:22:53.324Z,95.23
2019-02-21T21:25:20.528Z,97.20
2019-02-21T21:27:47.639Z,97.47
2019-02-21T21:30:14.491Z,87.17
2019-02-21T21:32:41.355Z,83.63
2019-02-21T21:35:08.288Z,92.77
2019-02-21T21:37:35.014Z,90.10
2019-02-21T21:40:02.222Z,94.10
2019-02-21T21:42:29.360Z,83.53
2019-02-21T21:45:09.386Z,88.93
2019-02-21T21:47:36.127Z,89.57
2019-02-21T21:50:03.348Z,83.10
2019-02-21T21:52:30.451Z,84.97
2019-02-21T21:54:57.393Z,84.77
2019-02-21T21:57:24.383Z,86.93
2019-02-21T21:59:51.222Z,78.43
2019-02-21T22:02:17.964Z,82.43
2019-02-21T22:04:44.719Z,82.03
2019-02-21T22:07:11.570Z,80.67
2019-02-21T22:09:38.333Z,78.40
2019-02-21T22:12:05.087Z,85.57
2019-02-21T22:14:31.901Z,84.10
2019-02-21T22:16:58.657Z,85.03
2019-02-21T22:19:25.697Z,81.60
2019-02-21T22:21:52.674Z,84.73
2019-02-21T22:24:19.409Z,85.30
2019-02-21T22:26:46.417Z,82.90
2019-02-21T22:29:13.282Z,90.03
2019-02-21T22:31:40.034Z,83.70
2019-02-21T22:34:07.046Z,76.23
2019-02-21T22:36:34.233Z,84.80
2019-02-21T22:39:02.071Z,81.23
2019-02-21T22:41:29.620Z,81.67
2019-02-21T22:43:56.878Z,85.97
2019-02-21T22:46:23.666Z,83.57
2019-02-21T22:48:50.413Z,84.53
2019-02-21T22:51:17.243Z,83.57
2019-02-21T22:53:44.022Z,76.63
2019-02-21T22:56:10.760Z,73.13
2019-02-21T22:58:44.693Z,79.03
2019-02-21T23:01:27.699Z,74.83
2019-02-21T23:04:12.323Z,84.33
2019-02-21T23:06:55.559Z,69.73
2019-02-21T23:09:27.609Z,72.17
2019-02-21T23:11:53.785Z,73.10
2019-02-21T23:14:20.554Z,71.73
2019-02-21T23:16:47.464Z,70.03
2019-02-21T23:19:15.052Z,68.07
2019-02-21T23:22:01.566Z,67.50
2019-02-21T23:24:29.295Z,67.00
2019-02-21T23:26:56.133Z,70.57
2019-02-21T23:29:22.921Z,61.20
2019-02-21T23:31:49.830Z,65.17
2019-02-21T23:34:36.722Z,59.40
2019-02-21T23:37:03.974Z,56.33
2019-02-21T23:39:38.365Z,61.37
2019-02-21T23:42:00.489Z,55.47
2019-02-21T23:44:28.179Z,58.13
2019-02-21T23:46:55.344Z,55.37
2019-02-21T23:49:22.857Z,51.40
2019-02-21T23:51:49.679Z,48.20
2019-02-21T23:54:16.617Z,47.33
2019-02-21T23:56:43.568Z,47.60
2019-02-21T23:59:11.246Z,43.63
